Havelock, NC (28532)

8:02 AM EST on December 05, 2016 (GMT -0500)
Cherry Point Marine Corps Air Station | | Change Station

Elev 26 ft 34.90 °N, 76.88 °W | Updated 8 minutes ago

Overcast
Overcast
52 °F
Feels Like 52 °F
N
14
Wind Variable Wind from NNW

Today
High -- | Low -- °F
--% Chance of Precip.
Yesterday
High -- | Low -- °F
Precip. -- in
Pressure 29.95 in
Visibility 10.0 miles
Clouds Overcast 400 ft
Dew Point 50 °F
Humidity 93%
Rainfall 0.93 in
Snow Depth Not available.
7:00 AM 4:56 PM
Waxing Crescent, 31% visible
METAR KNKT 051254Z 34012KT 10SM OVC004 11/10 A2996 RMK AO2 RAE39 SLP141 P0001 T01110100
Pressure 29.95 in
Visibility 10.0 miles
Clouds Overcast 400 ft
Dew Point 50 °F
Humidity 93%
Rainfall 0.93 in
Snow Depth Not available.
7:00 AM 4:56 PM
Waxing Crescent, 31% visible
METAR KNKT 051254Z 34012KT 10SM OVC004 11/10 A2996 RMK AO2 RAE39 SLP141 P0001 T01110100

10-Day Weather Forecast

Almanac

Astronomy

Dec. 05, 2016 Rise Set
Actual Time
Civil Twilight
Nautical Twilight
Astronomical Twilight
Moon
Length of Visible Light
Length of Day
Tomorrow will be .
, % of the Moon is Illuminated

Today's Extremes

State Highs State Lows

Community

WunderPhotos

Upload Photos

1,955,780 photos uploaded!

WunderBlog® & News

Nearby

Air Quality

  Air Quality AQ Index Pollutant
Not available.

Snow Depth

Station Depth Elevation

Earthquake Activity

City Distance Mag. Time & Date
Minimum magnitude displayed is 2.5.

Coastal Water Temperatures

Place Temperature

Stations

Nearby Weather Stations

Station Location Temp. Windchill Dew Point Humidity Wind Precip. Elev Updated Type
                   

Watches & Warnings

There are currently no watches in effect.